Time;durP1;ratioP1;P1;durP2;ratioP2;P2;SDS_P1;SDS_P2;PMS_P1;PMS_P2;Temp;Humidity;BMP_temperature;BMP_pressure;BME280_temperature;BME280_humidity;BME280_pressure;Samples;Min_cycle;Max_cycle;Signal;HPM_P1;HPM_P2
2023/09/22 00:00:14;;;;;;;2.65;1.52;;;16.90;99.90;;;18.80;65.05;96380.28;5022834;28;20078;-63
2023/09/22 00:02:46;;;;;;;1.23;0.88;;;16.90;99.90;;;18.79;65.21;96378.63;5003240;28;20077;-63
2023/09/22 00:05:14;;;;;;;2.10;1.00;;;16.90;99.90;;;18.78;65.15;96387.78;5001899;28;20501;-63
2023/09/22 00:07:43;;;;;;;1.67;1.05;;;16.80;99.90;;;18.76;65.30;96393.41;5021927;28;20056;-63
2023/09/22 00:10:12;;;;;;;1.30;0.88;;;16.80;99.90;;;18.72;65.34;96386.06;5022836;28;20488;-63
2023/09/22 00:12:41;;;;;;;1.60;1.00;;;16.70;99.90;;;18.73;65.38;96382.28;5020187;28;20519;-64
2023/09/22 00:15:10;;;;;;;1.35;0.95;;;16.80;99.90;;;18.70;65.34;96383.59;5001507;28;20409;-63
2023/09/22 00:17:38;;;;;;;1.70;0.80;;;16.70;99.90;;;18.67;65.39;96384.91;5009838;28;20049;-63
2023/09/22 00:20:12;;;;;;;0.60;0.60;;;16.70;99.90;;;18.62;65.50;96378.63;5022657;28;20060;-63
2023/09/22 00:22:42;;;;;;;1.15;0.70;;;16.60;99.90;;;18.58;65.40;96380.16;4986989;28;20060;-63
2023/09/22 00:25:10;;;;;;;1.27;1.00;;;16.60;99.90;;;18.54;65.48;96371.75;5001345;28;20046;-63
2023/09/22 00:27:38;;;;;;;1.00;0.90;;;16.50;99.90;;;18.50;65.42;96371.41;5003277;28;20064;-63
2023/09/22 00:30:09;;;;;;;0.93;0.85;;;16.40;99.90;;;18.45;65.45;96367.78;5004720;28;20512;-63
2023/09/22 00:32:38;;;;;;;2.25;1.02;;;16.40;99.90;;;18.40;65.64;96359.66;5003456;28;20052;-63
2023/09/22 00:35:10;;;;;;;1.65;0.80;;;16.30;99.90;;;18.39;65.44;96339.94;5006052;28;20041;-64
2023/09/22 00:37:40;;;;;;;2.78;1.10;;;16.40;99.90;;;18.39;65.28;96350.72;5003674;28;20053;-64
2023/09/22 00:40:09;;;;;;;0.93;0.90;;;16.40;99.90;;;18.37;65.37;96352.84;4998405;28;20510;-64
2023/09/22 00:42:37;;;;;;;0.88;0.63;;;16.30;99.90;;;18.29;65.54;96356.75;5002711;28;20053;-64
2023/09/22 00:45:06;;;;;;;1.73;1.05;;;16.20;99.90;;;18.25;65.37;96360.97;5003542;28;20045;-64
2023/09/22 00:47:35;;;;;;;1.83;1.20;;;16.20;99.90;;;18.22;65.50;96369.56;4983566;28;20417;-64
2023/09/22 00:50:03;;;;;;;0.93;0.80;;;16.20;99.90;;;18.21;65.52;96386.78;5000504;28;20049;-64
2023/09/22 00:52:31;;;;;;;1.05;0.80;;;16.20;99.90;;;18.20;65.38;96390.50;5001751;28;20056;-63
2023/09/22 00:54:59;;;;;;;2.28;0.93;;;16.20;99.90;;;18.17;65.38;96395.59;5006636;28;20038;-64
2023/09/22 00:57:28;;;;;;;4.10;0.90;;;16.10;99.90;;;18.13;65.39;96394.44;4992285;28;20053;-64
2023/09/22 00:59:56;;;;;;;1.73;0.70;;;16.10;99.90;;;18.08;65.18;96398.63;4981247;28;20050;-64
2023/09/22 01:02:25;;;;;;;1.17;0.90;;;16.00;99.90;;;18.02;65.13;96394.22;4996958;28;20598;-64
2023/09/22 01:04:53;;;;;;;1.17;0.90;;;16.00;99.90;;;17.94;65.15;96397.28;4997426;28;20278;-64
2023/09/22 01:07:21;;;;;;;0.80;0.80;;;15.90;99.90;;;17.94;65.15;96405.34;5008877;28;20057;-65
2023/09/22 01:09:48;;;;;;;1.10;0.95;;;15.90;99.90;;;17.87;65.08;96407.34;5025242;28;20045;-64
2023/09/22 01:12:16;;;;;;;3.92;1.23;;;15.80;99.90;;;17.87;65.10;96402.81;5015972;28;20052;-64
2023/09/22 01:14:44;;;;;;;0.80;0.80;;;15.80;99.90;;;17.82;64.92;96401.84;5005072;28;20054;-64
2023/09/22 01:17:13;;;;;;;1.95;0.70;;;15.80;99.90;;;17.75;64.91;96387.69;5006857;28;20501;-64
2023/09/22 01:19:42;;;;;;;2.55;0.85;;;15.80;99.90;;;17.71;64.90;96396.22;5005429;28;20053;-64
2023/09/22 01:22:11;;;;;;;1.77;1.08;;;15.70;99.90;;;17.72;64.70;96386.31;5025972;28;20047;-64
2023/09/22 01:24:39;;;;;;;1.08;0.98;;;15.80;99.90;;;17.73;64.47;96376.34;5024015;28;20057;-64
2023/09/22 01:27:08;;;;;;;1.35;0.90;;;15.80;99.90;;;17.70;64.31;96377.66;4988143;28;20061;-64
2023/09/22 01:29:37;;;;;;;1.83;1.00;;;15.70;99.90;;;17.69;64.15;96359.84;5023322;28;20497;-65
2023/09/22 01:32:09;;;;;;;1.00;0.88;;;15.70;99.90;;;17.68;64.04;96352.81;5015592;28;20045;-64
2023/09/22 01:34:37;;;;;;;0.88;0.80;;;15.70;99.90;;;17.61;63.85;96373.69;4990633;28;20060;-64
2023/09/22 01:37:07;;;;;;;1.30;0.82;;;15.60;99.90;;;17.51;64.09;96382.38;5004339;28;20061;-64
2023/09/22 01:39:35;;;;;;;2.13;1.05;;;15.50;99.90;;;17.53;63.99;96399.09;5012503;28;20057;-64
2023/09/22 01:42:03;;;;;;;1.52;1.17;;;15.50;99.90;;;17.46;63.98;96401.88;5025440;28;20037;-64
2023/09/22 01:44:31;;;;;;;0.85;0.85;;;15.40;99.90;;;17.43;63.85;96388.91;5006844;28;20052;-64
2023/09/22 01:46:58;;;;;;;1.10;1.00;;;15.40;99.90;;;17.39;63.82;96376.16;5000390;28;20057;-64
2023/09/22 01:49:26;;;;;;;2.03;1.10;;;15.40;99.90;;;17.36;63.90;96390.09;5024289;28;20045;-64
2023/09/22 01:51:54;;;;;;;1.02;0.80;;;15.30;99.90;;;17.34;63.79;96376.88;5012838;28;20410;-65
2023/09/22 01:54:21;;;;;;;2.53;1.10;;;15.30;99.90;;;17.30;63.96;96371.13;5021217;28;20050;-64
2023/09/22 01:56:50;;;;;;;1.17;0.93;;;15.20;99.90;;;17.26;63.88;96367.28;5022559;28;20046;-64
2023/09/22 01:59:17;;;;;;;3.10;1.30;;;15.30;99.90;;;17.24;63.84;96360.50;5015951;28;20049;-64
2023/09/22 02:01:45;;;;;;;1.98;1.00;;;15.20;99.90;;;17.24;63.84;96349.75;5006054;28;20050;-64
2023/09/22 02:04:13;;;;;;;1.15;0.85;;;15.20;99.90;;;17.21;63.84;96345.66;5021456;28;20076;-64
2023/09/22 02:06:41;;;;;;;1.88;1.20;;;15.20;99.90;;;17.16;63.83;96347.41;5021271;28;20501;-65
2023/09/22 02:09:09;;;;;;;1.73;1.00;;;15.10;99.90;;;17.07;63.85;96352.31;5007411;28;20500;-64
2023/09/22 02:11:37;;;;;;;1.92;1.27;;;15.00;99.90;;;17.06;63.85;96353.38;5006912;28;20041;-64
2023/09/22 02:14:05;;;;;;;1.40;0.88;;;15.00;99.90;;;16.99;63.95;96356.19;5003973;28;20058;-64
2023/09/22 02:16:33;;;;;;;2.08;1.30;;;14.90;99.90;;;17.00;63.90;96354.31;5020926;28;20497;-64
2023/09/22 02:19:01;;;;;;;3.47;1.10;;;14.90;99.90;;;16.96;64.01;96353.94;4995916;28;20134;-64
2023/09/22 02:21:30;;;;;;;2.22;1.10;;;15.00;99.90;;;16.97;63.93;96344.84;5007850;28;20069;-65
2023/09/22 02:23:58;;;;;;;1.35;1.10;;;14.90;99.90;;;16.97;63.91;96349.41;5005790;28;20060;-64
2023/09/22 02:26:26;;;;;;;1.60;1.15;;;14.90;99.90;;;16.96;63.92;96355.81;5024308;28;20042;-64
2023/09/22 02:28:53;;;;;;;1.05;0.85;;;14.90;99.90;;;16.91;63.99;96369.97;5021716;28;20037;-65
2023/09/22 02:31:21;;;;;;;1.33;0.88;;;14.90;99.90;;;16.89;63.98;96385.53;5027155;28;20057;-64
2023/09/22 02:33:49;;;;;;;1.48;1.15;;;14.80;99.90;;;16.88;63.83;96392.75;5004713;28;20189;-64
2023/09/22 02:36:16;;;;;;;1.70;0.90;;;14.80;99.90;;;16.89;63.99;96372.88;5005175;28;20057;-64
2023/09/22 02:38:44;;;;;;;1.77;1.00;;;14.90;99.90;;;16.91;63.83;96370.78;5021973;28;20056;-64
2023/09/22 02:41:14;;;;;;;2.08;1.20;;;14.90;99.90;;;16.91;63.81;96372.66;5005753;28;20519;-64
2023/09/22 02:43:41;;;;;;;1.40;1.10;;;14.90;99.90;;;16.92;63.87;96391.25;4981783;28;20064;-64
2023/09/22 02:46:09;;;;;;;2.00;1.40;;;14.90;99.90;;;16.88;63.80;96397.31;5005907;28;20432;-64
2023/09/22 02:48:37;;;;;;;2.17;1.38;;;14.90;99.90;;;16.90;63.77;96389.81;5022417;28;20376;-64
2023/09/22 02:51:08;;;;;;;1.35;1.10;;;14.90;99.90;;;16.93;63.80;96394.75;5002900;28;20038;-64
2023/09/22 02:53:36;;;;;;;1.02;0.88;;;15.00;99.90;;;16.92;63.57;96415.44;5007149;28;20045;-64
2023/09/22 02:56:05;;;;;;;2.13;1.08;;;15.00;99.90;;;16.93;63.60;96410.88;4994263;28;20096;-64
2023/09/22 02:58:34;;;;;;;1.88;1.60;;;15.00;99.90;;;16.88;63.82;96408.88;5002768;28;20046;-64
2023/09/22 03:01:08;;;;;;;2.38;1.23;;;14.90;99.90;;;16.82;63.88;96393.66;4994052;28;20049;-64
2023/09/22 03:03:42;;;;;;;2.75;1.17;;;14.80;99.90;;;16.83;63.84;96378.38;5020406;28;20049;-64
2023/09/22 03:06:11;;;;;;;1.42;0.90;;;14.80;99.90;;;16.82;63.74;96377.53;4996209;28;20070;-64
2023/09/22 03:08:39;;;;;;;1.60;1.35;;;14.80;99.90;;;16.82;63.94;96380.22;4966766;28;20038;-64
2023/09/22 03:11:07;;;;;;;2.90;1.17;;;14.80;99.90;;;16.80;63.73;96378.81;4989983;28;20038;-64
2023/09/22 03:13:34;;;;;;;1.90;1.00;;;14.80;99.90;;;16.78;63.70;96370.16;5013519;28;20519;-64
2023/09/22 03:16:02;;;;;;;1.95;0.95;;;14.80;99.90;;;16.78;63.78;96356.72;5019914;28;20042;-64
2023/09/22 03:18:30;;;;;;;1.42;1.20;;;14.80;99.90;;;16.77;63.88;96355.06;5005732;28;20679;-64
2023/09/22 03:20:58;;;;;;;1.33;1.08;;;14.80;99.90;;;16.74;63.89;96378.66;5012490;28;20054;-65
2023/09/22 03:23:25;;;;;;;2.03;1.10;;;14.80;99.90;;;16.72;63.94;96380.78;5005092;28;20053;-64
2023/09/22 03:25:53;;;;;;;3.05;1.17;;;14.70;99.90;;;16.75;63.77;96379.50;5021445;28;20049;-64
2023/09/22 03:28:21;;;;;;;2.05;1.10;;;14.80;99.90;;;16.74;63.84;96383.22;5002136;28;20046;-64
2023/09/22 03:30:49;;;;;;;2.05;1.27;;;14.80;99.90;;;16.71;63.71;96392.59;4994432;28;20049;-64
2023/09/22 03:33:17;;;;;;;1.85;1.38;;;14.70;99.90;;;16.72;63.98;96399.59;5005374;28;20389;-64
2023/09/22 03:35:46;;;;;;;1.10;1.00;;;14.80;99.90;;;16.76;63.72;96393.75;5004636;28;20500;-64
2023/09/22 03:38:15;;;;;;;1.33;0.85;;;14.80;99.90;;;16.78;63.59;96402.41;5001545;28;20524;-64
2023/09/22 03:40:42;;;;;;;2.22;1.05;;;14.80;99.90;;;16.73;63.97;96417.34;4987133;28;20073;-64
2023/09/22 03:43:10;;;;;;;2.65;1.08;;;14.80;99.90;;;16.71;63.99;96430.22;5004878;28;20089;-65
2023/09/22 03:45:38;;;;;;;2.30;1.20;;;14.70;99.90;;;16.72;63.95;96429.13;5004215;28;20045;-64
2023/09/22 03:48:06;;;;;;;1.20;1.00;;;14.80;99.90;;;16.72;63.77;96436.38;5017280;28;20053;-64
2023/09/22 03:50:36;;;;;;;2.00;1.20;;;14.80;99.90;;;16.73;63.75;96446.09;5005744;28;20042;-64
2023/09/22 03:53:03;;;;;;;2.65;1.35;;;14.80;99.90;;;16.73;63.69;96446.09;5012802;28;20049;-62
2023/09/22 03:55:32;;;;;;;1.40;1.00;;;14.80;99.90;;;16.80;63.60;96448.69;5004513;28;20041;-64
2023/09/22 03:58:00;;;;;;;1.75;1.25;;;14.90;99.90;;;16.80;63.67;96449.50;5002412;28;20053;-63
2023/09/22 04:00:28;;;;;;;3.97;2.60;;;14.90;99.70;;;16.82;63.74;96427.81;5004215;28;20072;-63
2023/09/22 04:02:56;;;;;;;1.55;1.05;;;15.00;99.90;;;16.85;63.58;96412.03;5002897;28;20054;-63
2023/09/22 04:05:24;;;;;;;1.45;1.02;;;15.00;99.70;;;16.90;63.37;96393.34;5004379;28;20045;-62
2023/09/22 04:07:54;;;;;;;2.60;1.10;;;15.10;98.70;;;16.94;63.11;96396.38;5021396;28;20042;-63
2023/09/22 04:10:22;;;;;;;2.40;1.08;;;15.10;98.50;;;16.96;63.15;96377.34;5003027;28;20049;-64
2023/09/22 04:12:52;;;;;;;3.05;1.45;;;15.10;97.80;;;17.00;63.21;96375.81;5019943;28;20488;-65
2023/09/22 04:15:23;;;;;;;1.77;1.20;;;15.10;97.50;;;16.98;63.18;96386.78;5005880;28;20038;-62
2023/09/22 04:17:51;;;;;;;4.20;1.35;;;15.10;98.00;;;16.97;62.85;96382.47;5004571;28;20053;-61
2023/09/22 04:20:35;;;;;;;2.13;1.13;;;15.10;97.90;;;17.01;62.97;96390.91;5019696;28;20045;-61
2023/09/22 04:23:04;;;;;;;1.95;1.15;;;15.10;97.60;;;17.02;62.80;96395.22;5021141;28;20060;-62
2023/09/22 04:25:34;;;;;;;1.42;1.00;;;15.10;98.00;;;17.03;62.74;96388.81;5022180;28;20512;-63
2023/09/22 04:28:11;;;;;;;2.25;1.08;;;15.20;97.50;;;17.04;62.85;96398.50;5020394;28;20417;-63
2023/09/22 04:30:40;;;;;;;2.90;1.20;;;15.20;97.70;;;17.02;62.91;96417.56;5018884;28;20405;-65
2023/09/22 04:33:10;;;;;;;3.80;1.40;;;15.20;97.60;;;17.02;62.75;96417.56;5021578;28;20037;-64
2023/09/22 04:35:40;;;;;;;2.10;1.10;;;15.30;97.00;;;17.00;62.89;96419.66;5022995;28;20049;-64
2023/09/22 04:38:09;;;;;;;2.55;1.30;;;15.30;96.60;;;17.00;62.96;96408.06;5021648;28;20064;-64
2023/09/22 04:40:38;;;;;;;3.03;1.20;;;15.30;96.30;;;17.00;62.93;96408.91;5005046;28;20044;-65
2023/09/22 04:43:08;;;;;;;2.15;1.45;;;15.20;96.70;;;17.02;62.79;96405.97;5002516;28;20523;-65
2023/09/22 04:45:41;;;;;;;2.53;1.63;;;15.20;97.00;;;17.01;62.66;96398.97;5000190;28;20054;-65
2023/09/22 04:48:10;;;;;;;1.85;1.20;;;15.20;96.40;;;17.00;62.69;96390.09;5004157;28;20053;-65
2023/09/22 04:50:38;;;;;;;3.00;1.30;;;15.10;96.80;;;17.00;62.61;96392.78;5022094;28;20424;-65
2023/09/22 04:53:06;;;;;;;1.90;1.40;;;15.10;96.90;;;16.97;62.64;96398.59;5002287;28;20117;-65
2023/09/22 04:55:35;;;;;;;2.15;1.30;;;15.10;97.20;;;17.00;62.77;96398.16;5018494;28;20038;-65
2023/09/22 04:58:08;;;;;;;1.77;1.30;;;15.20;96.30;;;16.99;62.57;96404.56;5026809;28;20416;-64
2023/09/22 05:00:37;;;;;;;3.10;1.20;;;15.20;96.40;;;17.00;62.31;96391.94;5018841;28;20094;-65
2023/09/22 05:03:05;;;;;;;1.55;1.00;;;15.20;96.10;;;16.99;62.48;96404.56;5020650;28;20045;-64
2023/09/22 05:05:33;;;;;;;2.80;1.48;;;15.10;96.30;;;16.90;62.65;96427.47;4988120;28;20057;-65
2023/09/22 05:08:01;;;;;;;1.67;1.17;;;15.00;96.60;;;16.86;62.77;96420.91;5020514;28;20436;-64
2023/09/22 05:10:31;;;;;;;1.75;1.38;;;15.00;97.50;;;16.83;62.74;96421.38;5018434;28;20492;-64
2023/09/22 05:12:59;;;;;;;5.30;1.98;;;15.00;97.70;;;16.76;62.77;96408.00;5019611;28;20437;-65
2023/09/22 05:15:29;;;;;;;1.65;1.13;;;15.00;97.00;;;16.78;62.88;96410.47;5021532;28;20042;-65
2023/09/22 05:17:56;;;;;;;2.85;1.30;;;15.00;97.10;;;16.69;63.17;96426.09;5020812;28;20049;-64
2023/09/22 05:20:24;;;;;;;2.00;1.10;;;14.90;97.60;;;16.74;63.07;96418.97;5018587;28;20042;-64
2023/09/22 05:22:52;;;;;;;1.73;1.08;;;15.00;97.70;;;16.79;62.86;96422.84;5018511;28;20474;-63
2023/09/22 05:25:20;;;;;;;1.98;1.25;;;15.00;97.60;;;16.80;62.86;96422.63;5021810;28;20416;-63
2023/09/22 05:27:48;;;;;;;4.07;1.45;;;15.00;97.70;;;16.85;62.72;96438.09;5021730;28;20412;-64
2023/09/22 05:30:15;;;;;;;2.28;1.00;;;15.00;97.20;;;16.83;62.66;96448.28;5018370;28;20042;-64
2023/09/22 05:32:43;;;;;;;1.35;0.95;;;15.00;96.70;;;16.85;62.96;96449.66;5018192;28;20034;-64
2023/09/22 05:35:11;;;;;;;1.95;1.30;;;15.00;96.70;;;16.83;62.77;96461.72;5025082;28;20041;-64
2023/09/22 05:37:38;;;;;;;2.15;0.90;;;14.90;97.10;;;16.83;62.68;96457.13;5018645;28;20045;-64
2023/09/22 05:40:12;;;;;;;4.30;1.20;;;15.00;97.50;;;16.88;62.87;96454.56;5020723;28;20496;-64
2023/09/22 05:42:42;;;;;;;2.25;1.13;;;15.00;97.40;;;16.89;62.91;96458.09;5025270;28;20049;-64
2023/09/22 05:45:11;;;;;;;1.40;0.82;;;15.10;97.80;;;16.90;62.71;96468.63;5004952;28;20519;-64
2023/09/22 05:47:39;;;;;;;2.25;1.33;;;15.10;96.80;;;16.87;62.75;96474.44;5021994;28;20049;-64
2023/09/22 05:50:10;;;;;;;1.10;1.00;;;15.10;96.90;;;16.88;62.74;96476.06;5004525;28;20068;-64
2023/09/22 05:52:38;;;;;;;1.58;1.08;;;15.10;96.40;;;16.92;62.55;96479.97;5024251;28;20148;-65
2023/09/22 05:55:10;;;;;;;3.78;1.05;;;15.10;96.30;;;16.86;62.67;96482.72;5021147;28;20045;-64
2023/09/22 05:57:38;;;;;;;2.03;1.17;;;15.00;96.10;;;16.86;62.73;96485.41;4990322;28;20527;-65
2023/09/22 06:00:10;;;;;;;1.20;1.00;;;15.00;95.40;;;16.80;62.80;96495.19;5023067;28;20057;-63
2023/09/22 06:02:37;;;;;;;3.05;1.23;;;15.10;96.40;;;16.85;62.69;96505.31;5024677;28;20274;-61
2023/09/22 06:05:06;;;;;;;1.65;1.02;;;15.10;96.30;;;16.90;62.49;96503.56;4989613;28;20053;-63
2023/09/22 06:07:35;;;;;;;2.95;0.90;;;15.20;95.20;;;16.89;62.42;96509.16;5024817;28;20042;-63
2023/09/22 06:10:05;;;;;;;2.20;1.10;;;15.20;94.60;;;16.90;62.32;96518.84;5023555;28;20045;-62
2023/09/22 06:12:33;;;;;;;1.55;1.00;;;15.20;95.10;;;16.90;62.31;96522.38;5021457;28;20409;-62
2023/09/22 06:15:01;;;;;;;1.23;0.85;;;15.20;95.00;;;16.90;62.61;96518.84;5021236;28;20045;-62
2023/09/22 06:17:30;;;;;;;7.97;1.52;;;15.20;95.50;;;16.93;62.30;96519.22;5024617;28;20046;-62
2023/09/22 06:19:57;;;;;;;3.25;1.50;;;15.20;95.30;;;16.91;62.77;96526.69;5006840;28;20060;-65
2023/09/22 06:22:25;;;;;;;2.03;1.33;;;15.20;96.10;;;16.87;63.00;96522.81;5021201;28;20045;-64
2023/09/22 06:24:53;;;;;;;1.20;1.02;;;15.20;96.80;;;16.92;62.98;96522.97;5003255;28;20056;-63
2023/09/22 06:27:21;;;;;;;1.55;1.10;;;15.20;97.30;;;16.97;62.76;96514.22;5024132;28;20052;-63
2023/09/22 06:29:48;;;;;;;1.98;1.75;;;15.20;96.00;;;17.01;62.74;96503.81;5024202;28;20037;-64
2023/09/22 06:32:18;;;;;;;1.75;1.10;;;15.20;96.80;;;17.05;62.69;96513.06;5011539;28;20049;-64
2023/09/22 06:34:45;;;;;;;2.05;0.93;;;15.20;96.80;;;17.05;62.70;96516.56;5003446;28;20044;-65
2023/09/22 06:37:13;;;;;;;1.50;1.10;;;15.20;95.60;;;17.07;62.41;96529.78;5022592;28;20501;-65
2023/09/22 06:39:42;;;;;;;1.63;1.10;;;15.30;96.30;;;17.00;62.60;96521.81;5024402;28;20037;-66
2023/09/22 06:42:10;;;;;;;1.63;1.05;;;15.20;96.00;;;17.00;62.73;96531.75;5022806;28;20268;-66
2023/09/22 06:44:37;;;;;;;2.42;1.08;;;15.20;96.30;;;17.00;62.69;96524.50;5002480;28;20042;-64
2023/09/22 06:47:05;;;;;;;2.03;1.20;;;15.20;96.80;;;17.02;62.69;96530.47;5021673;28;20045;-65
2023/09/22 06:49:33;;;;;;;2.95;1.30;;;15.20;97.10;;;17.04;62.77;96509.56;5019894;28;20100;-64
2023/09/22 06:52:00;;;;;;;2.28;1.38;;;15.20;96.60;;;17.04;62.90;96514.09;5005563;28;20167;-64
2023/09/22 06:54:29;;;;;;;3.60;1.30;;;15.30;96.30;;;17.05;62.68;96511.19;5020337;28;20034;-64
2023/09/22 06:56:56;;;;;;;1.77;1.17;;;15.30;96.30;;;17.10;62.67;96514.00;5020496;28;20042;-64
2023/09/22 06:59:24;;;;;;;2.35;1.17;;;15.40;95.90;;;17.16;62.56;96511.44;5023586;28;20037;-64
2023/09/22 07:01:51;;;;;;;2.25;1.00;;;15.40;96.20;;;17.16;62.52;96506.91;5006319;28;20037;-64
2023/09/22 07:04:21;;;;;;;1.77;1.05;;;15.40;95.40;;;17.18;62.58;96498.59;5020855;28;20057;-64
2023/09/22 07:06:48;;;;;;;2.05;1.30;;;15.40;95.90;;;17.21;62.39;96490.06;5020325;28;20043;-64
2023/09/22 07:09:16;;;;;;;2.90;1.38;;;15.50;95.90;;;17.22;62.31;96505.97;5022353;28;20421;-64
2023/09/22 07:11:43;;;;;;;3.15;1.10;;;15.50;95.00;;;17.26;62.49;96525.97;4989813;28;20508;-63
2023/09/22 07:14:11;;;;;;;1.73;1.10;;;15.60;95.30;;;17.32;62.25;96516.97;5004572;28;20046;-63
2023/09/22 07:16:39;;;;;;;2.88;1.25;;;15.60;94.10;;;17.35;62.01;96517.56;5019786;28;20045;-62
2023/09/22 07:19:07;;;;;;;1.85;1.20;;;15.60;93.60;;;17.34;61.96;96514.06;4983616;28;20046;-63
2023/09/22 07:21:34;;;;;;;1.90;1.10;;;15.70;94.00;;;17.38;61.89;96504.47;5006131;28;20048;-62
2023/09/22 07:24:03;;;;;;;1.60;1.00;;;15.70;93.80;;;17.41;61.69;96516.63;5023950;28;20060;-62
2023/09/22 07:26:31;;;;;;;2.45;1.15;;;15.80;92.80;;;17.43;61.78;96507.28;4995483;28;20046;-63
2023/09/22 07:28:58;;;;;;;1.02;0.93;;;15.80;93.20;;;17.48;61.74;96515.47;5020861;28;20421;-63
2023/09/22 07:31:30;;;;;;;2.67;1.17;;;15.80;93.60;;;17.53;61.62;96520.16;5022796;28;20041;-62
2023/09/22 07:33:58;;;;;;;3.50;2.03;;;15.90;92.70;;;17.60;61.67;96522.72;5023168;28;20049;-62
2023/09/22 07:36:26;;;;;;;2.25;0.93;;;15.90;93.10;;;17.63;61.49;96515.00;5002581;28;20052;-62
2023/09/22 07:38:54;;;;;;;3.75;1.45;;;16.00;92.40;;;17.65;61.36;96518.28;5009165;28;20041;-62
2023/09/22 07:41:22;;;;;;;3.30;1.17;;;15.90;92.50;;;17.70;61.40;96537.25;5020776;28;20045;-64
2023/09/22 07:43:52;;;;;;;2.03;1.10;;;16.00;92.50;;;17.74;61.62;96556.47;5019660;28;20516;-64
2023/09/22 07:46:22;;;;;;;1.90;1.30;;;16.00;93.00;;;17.70;61.44;96568.75;4993356;28;20057;-64
2023/09/22 07:48:53;;;;;;;1.23;1.10;;;16.00;93.30;;;17.71;61.59;96563.09;5002884;28;20041;-64
2023/09/22 07:51:22;;;;;;;2.47;0.90;;;16.00;93.60;;;17.71;61.37;96565.00;5021541;28;20479;-64
2023/09/22 07:53:49;;;;;;;1.70;1.13;;;16.00;93.30;;;17.68;61.29;96568.13;5021704;28;20037;-64
2023/09/22 07:56:18;;;;;;;1.70;1.20;;;15.90;93.00;;;17.68;61.63;96562.75;5021107;28;20408;-64
2023/09/22 07:58:46;;;;;;;2.72;1.15;;;15.90;93.00;;;17.71;61.17;96554.22;5019501;28;20053;-65
2023/09/22 08:01:34;;;;;;;1.45;0.95;;;15.90;92.70;;;17.74;61.26;96552.94;5011807;28;20033;-64
2023/09/22 08:04:01;;;;;;;1.30;1.20;;;16.00;92.20;;;17.75;61.20;96563.47;5001123;28;20505;-65
2023/09/22 08:06:31;;;;;;;1.65;1.23;;;16.10;92.00;;;17.80;61.15;96576.25;5022008;28;20057;-64
2023/09/22 08:08:59;;;;;;;1.20;0.90;;;16.10;92.20;;;17.84;61.20;96580.13;5005301;28;20060;-64
2023/09/22 08:11:27;;;;;;;1.55;1.30;;;16.20;91.50;;;17.83;60.96;96576.56;4986219;28;20049;-63
2023/09/22 08:13:54;;;;;;;1.88;1.20;;;16.10;91.80;;;17.86;61.09;96575.34;5019127;28;20097;-64
2023/09/22 08:16:22;;;;;;;2.60;1.20;;;16.10;91.70;;;17.88;61.06;96571.34;5020815;28;20053;-63
2023/09/22 08:18:50;;;;;;;1.50;1.17;;;16.20;91.80;;;17.93;61.08;96580.59;5022884;28;20030;-64
2023/09/22 08:21:20;;;;;;;1.52;1.13;;;16.30;91.30;;;17.92;61.25;96574.41;5021013;28;20054;-63
2023/09/22 08:23:48;;;;;;;1.38;0.98;;;16.30;91.50;;;17.93;60.79;96577.91;5001988;28;20049;-63
2023/09/22 08:26:19;;;;;;;1.88;1.20;;;16.20;91.30;;;17.93;60.87;96589.47;5020102;28;20049;-64
2023/09/22 08:28:47;;;;;;;3.83;0.93;;;16.30;91.50;;;17.90;60.76;96590.78;5022377;28;20041;-63
2023/09/22 08:31:15;;;;;;;1.48;1.10;;;16.20;90.60;;;17.85;60.80;96596.03;4987234;28;20053;-63
2023/09/22 08:33:42;;;;;;;3.22;1.23;;;16.10;91.70;;;17.83;61.01;96594.59;5018606;28;20046;-63
2023/09/22 08:36:11;;;;;;;3.55;1.17;;;16.10;92.40;;;17.84;61.19;96585.53;5018476;28;20398;-63
2023/09/22 08:38:38;;;;;;;1.50;1.20;;;16.10;93.10;;;17.80;61.33;96585.13;5004020;28;20041;-63
2023/09/22 08:41:06;;;;;;;1.65;1.30;;;16.10;94.20;;;17.85;61.77;96601.41;5022397;28;20041;-63
2023/09/22 08:43:35;;;;;;;2.22;0.93;;;16.10;95.10;;;17.89;62.22;96602.63;5001381;28;20086;-63
2023/09/22 08:46:04;;;;;;;1.50;1.10;;;16.20;96.40;;;17.92;62.14;96595.13;5018602;28;20057;-62
2023/09/22 08:48:32;;;;;;;4.38;1.00;;;16.20;95.80;;;17.93;62.24;96591.38;5004087;28;20053;-62
2023/09/22 08:51:00;;;;;;;4.70;1.63;;;16.20;96.30;;;17.97;62.26;96593.38;5022140;28;20076;-62
2023/09/22 08:53:29;;;;;;;3.28;1.20;;;16.30;96.60;;;17.99;62.13;96590.44;5017848;28;20046;-63
2023/09/22 08:55:57;;;;;;;2.72;1.10;;;16.30;95.60;;;17.99;62.09;96598.50;5018442;28;20042;-62
2023/09/22 08:58:25;;;;;;;1.33;1.15;;;16.20;96.10;;;18.02;61.73;96600.75;5020471;28;20053;-62
2023/09/22 09:00:53;;;;;;;3.35;1.00;;;16.30;95.00;;;18.04;61.76;96598.63;5004848;28;20396;-62
2023/09/22 09:03:21;;;;;;;1.60;1.10;;;16.20;93.70;;;18.05;61.70;96592.22;5003398;28;20053;-62
2023/09/22 09:05:49;;;;;;;1.50;1.10;;;16.30;94.30;;;18.06;61.64;96599.22;5018320;28;20056;-62
2023/09/22 09:08:21;;;;;;;3.90;1.35;;;16.30;93.40;;;18.10;61.81;96605.78;5019076;28;20046;-62
2023/09/22 09:10:50;;;;;;;4.82;1.40;;;16.40;95.00;;;18.05;62.00;96594.91;5021867;28;20045;-62
2023/09/22 09:13:27;;;;;;;1.77;1.15;;;16.30;94.70;;;18.01;62.21;96597.22;5003903;28;20044;-63
2023/09/22 09:15:57;;;;;;;2.30;1.40;;;16.30;94.80;;;18.06;62.13;96607.28;5020580;28;20412;-63
2023/09/22 09:18:25;;;;;;;1.88;1.08;;;16.40;94.60;;;18.10;61.87;96609.28;4996690;28;20489;-63
2023/09/22 09:21:16;;;;;;;2.78;1.60;;;16.40;93.70;;;18.12;61.71;96606.34;5015647;28;20056;-63
2023/09/22 09:23:56;;;;;;;2.13;1.20;;;16.50;94.10;;;18.19;61.23;96603.56;5013144;28;20060;-63
2023/09/22 09:26:29;;;;;;;1.35;1.20;;;16.50;92.00;;;18.19;61.52;96598.97;4997406;28;20045;-63
2023/09/22 09:28:59;;;;;;;3.28;1.20;;;16.50;93.50;;;18.18;61.38;96601.91;5003794;28;20042;-62
2023/09/22 09:31:46;;;;;;;2.85;1.60;;;16.50;92.30;;;18.22;61.62;96619.22;5006314;28;20046;-63
2023/09/22 09:34:15;;;;;;;2.42;1.20;;;16.50;93.10;;;18.33;61.70;96614.91;5025215;28;20045;-62
2023/09/22 09:36:43;;;;;;;1.92;1.30;;;16.70;93.30;;;18.39;61.37;96619.34;4996533;28;20113;-63
2023/09/22 09:39:12;;;;;;;3.30;1.17;;;16.70;91.70;;;18.44;61.59;96617.59;5022224;28;20462;-63
2023/09/22 09:41:43;;;;;;;2.88;1.15;;;16.80;92.50;;;18.55;61.87;96620.50;5030074;28;20417;-64
2023/09/22 09:44:10;;;;;;;3.65;1.10;;;17.00;93.40;;;18.67;61.71;96618.63;5004499;28;20149;-63
2023/09/22 09:46:42;;;;;;;1.48;1.30;;;17.10;92.70;;;18.77;61.22;96621.50;5024664;28;20056;-64
2023/09/22 09:49:13;;;;;;;3.60;1.35;;;17.30;91.50;;;18.86;61.62;96613.88;5022478;28;20064;-64
2023/09/22 09:51:46;;;;;;;3.35;1.23;;;17.40;91.40;;;18.95;60.99;96615.16;5011713;28;20413;-63
2023/09/22 09:54:19;;;;;;;1.37;1.17;;;17.50;90.10;;;19.03;60.76;96609.38;5004605;28;20042;-63
2023/09/22 09:56:49;;;;;;;2.72;0.88;;;17.60;89.80;;;19.06;60.60;96602.69;4997333;28;20038;-63
2023/09/22 09:59:18;;;;;;;1.23;0.90;;;17.60;87.90;;;19.11;59.65;96605.47;4996370;28;20500;-64
2023/09/22 10:01:46;;;;;;;2.33;1.13;;;17.50;87.20;;;19.10;59.65;96617.34;4996626;28;20054;-63
2023/09/22 10:04:20;;;;;;;1.52;1.08;;;17.50;87.80;;;19.12;59.25;96611.72;5003865;28;20423;-63
2023/09/22 10:06:49;;;;;;;1.60;1.10;;;17.40;85.60;;;19.10;59.16;96613.81;4996688;28;20046;-63
2023/09/22 10:09:19;;;;;;;3.08;1.30;;;17.40;86.70;;;19.13;59.64;96611.44;5004617;28;20042;-63
2023/09/22 10:11:48;;;;;;;1.50;1.17;;;17.50;87.60;;;19.17;59.29;96596.41;4991149;28;20034;-63
2023/09/22 10:14:46;;;;;;;2.58;1.20;;;17.50;86.50;;;19.19;59.55;96591.63;5007163;28;20120;-62
2023/09/22 10:17:22;;;;;;;2.92;1.20;;;17.60;86.50;;;19.32;59.11;96585.09;5000482;28;20045;-65
2023/09/22 10:19:51;;;;;;;2.22;1.20;;;17.70;86.90;;;19.35;58.66;96584.63;4996709;28;20049;-62
2023/09/22 10:22:19;;;;;;;1.58;1.00;;;17.80;84.20;;;19.42;58.83;96582.56;5020934;28;20045;-63
2023/09/22 10:25:06;;;;;;;2.53;1.27;;;17.90;84.60;;;19.44;58.51;96580.47;5006699;28;20041;-63
2023/09/22 10:27:54;;;;;;;2.53;1.05;;;17.90;85.00;;;19.44;58.92;96582.31;4990669;28;20049;-62